createdAt,value
2017-07-08T00:00:10.690Z,97.19
2017-07-08T00:00:51.597Z,97.38
2017-07-08T00:01:32.588Z,97.57
2017-07-08T00:02:13.595Z,97.28
2017-07-08T00:02:54.498Z,96.89
2017-07-08T00:03:35.391Z,97.19
2017-07-08T00:04:16.297Z,96.94
2017-07-08T00:04:57.156Z,97.28
2017-07-08T00:05:38.046Z,97.09
2017-07-08T00:06:18.989Z,97.09
2017-07-08T00:06:59.884Z,96.89
2017-07-08T00:07:40.788Z,97.09
2017-07-08T00:08:21.675Z,97.28
2017-07-08T00:09:02.554Z,96.89
2017-07-08T00:09:43.459Z,97.38
2017-07-08T00:10:24.343Z,96.99
2017-07-08T00:11:05.221Z,97.19
2017-07-08T00:11:46.131Z,96.99
2017-07-08T00:12:27.028Z,96.99
2017-07-08T00:13:07.935Z,96.99
2017-07-08T00:13:48.827Z,96.99
2017-07-08T00:14:29.732Z,97.86
2017-07-08T00:15:10.629Z,97.76
2017-07-08T00:15:51.511Z,97.57
2017-07-08T00:16:32.407Z,96.99
2017-07-08T00:17:13.301Z,97.57
2017-07-08T00:17:54.201Z,97.42
2017-07-08T00:18:35.120Z,97.52
2017-07-08T00:19:16.003Z,97.52
2017-07-08T00:19:56.907Z,97.72
2017-07-08T00:20:37.797Z,97.52
2017-07-08T00:21:18.687Z,97.91
2017-07-08T00:21:59.576Z,98.39
2017-07-08T00:22:40.479Z,98
2017-07-08T00:23:21.377Z,98.19
2017-07-08T00:24:02.269Z,98.39
2017-07-08T00:24:43.161Z,98.58
2017-07-08T00:25:24.040Z,98.1
2017-07-08T00:26:04.967Z,98.19
2017-07-08T00:26:45.856Z,98.19
2017-07-08T00:27:26.755Z,98.49
2017-07-08T00:28:07.640Z,98.49
2017-07-08T00:28:48.532Z,97.72
2017-07-08T00:29:29.432Z,97.52
2017-07-08T00:30:10.309Z,97.91
2017-07-08T00:30:51.206Z,98.1
2017-07-08T00:31:32.113Z,98.19
2017-07-08T00:32:12.979Z,97.81
2017-07-08T00:32:53.983Z,97.52
2017-07-08T00:33:34.890Z,98.29
2017-07-08T00:34:15.773Z,98.39
2017-07-08T00:34:56.658Z,98.29
2017-07-08T00:35:37.565Z,98.29
2017-07-08T00:36:18.443Z,98
2017-07-08T00:36:59.323Z,98.29
2017-07-08T00:37:40.225Z,97.72
2017-07-08T00:38:21.117Z,97.33
2017-07-08T00:39:02.006Z,98.19
2017-07-08T00:39:42.904Z,98.29
2017-07-08T00:40:23.789Z,98.49
2017-07-08T00:41:04.692Z,98.29
2017-07-08T00:41:45.583Z,98.39
2017-07-08T00:42:26.480Z,98.19
2017-07-08T00:43:07.384Z,98.39
2017-07-08T00:43:48.283Z,98.39
2017-07-08T00:44:29.165Z,98.49
2017-07-08T00:45:10.061Z,98.29
2017-07-08T00:45:50.949Z,98
2017-07-08T00:46:31.850Z,98.29
2017-07-08T00:47:12.736Z,98.49
2017-07-08T00:49:11.535Z,98
2017-07-08T00:49:52.423Z,98.39
2017-07-08T00:50:33.314Z,98.19
2017-07-08T00:51:14.231Z,98.19
2017-07-08T00:51:55.128Z,98.19
2017-07-08T00:52:36.030Z,98.19
2017-07-08T00:53:16.916Z,98.49
2017-07-08T00:53:57.801Z,98.1
2017-07-08T00:54:38.704Z,98
2017-07-08T00:55:19.591Z,98.1
2017-07-08T00:56:00.485Z,98
2017-07-08T00:56:41.382Z,98
2017-07-08T00:57:22.285Z,97.81
2017-07-08T00:58:03.188Z,98.19
2017-07-08T00:58:44.082Z,98.49
2017-07-08T00:59:24.982Z,98.68
2017-07-08T01:00:05.878Z,98.58
2017-07-08T01:00:46.789Z,98.49
2017-07-08T01:01:27.650Z,98.49
2017-07-08T01:02:08.544Z,98.87
2017-07-08T01:02:49.423Z,98.87
2017-07-08T01:03:30.305Z,98.68
2017-07-08T01:04:11.185Z,98.68
2017-07-08T01:04:52.087Z,98.19
2017-07-08T01:05:32.975Z,98.49
2017-07-08T01:06:13.860Z,98.49
2017-07-08T01:06:54.749Z,98.39
2017-07-08T01:07:35.648Z,98.29
2017-07-08T01:08:16.538Z,98.29
2017-07-08T01:08:57.452Z,97.72
2017-07-08T01:09:38.335Z,98.39
2017-07-08T01:10:19.213Z,98.58
2017-07-08T01:11:00.101Z,98.39
2017-07-08T01:11:40.998Z,98.58
2017-07-08T01:12:21.871Z,98.58
2017-07-08T01:13:02.744Z,98.19
2017-07-08T01:13:43.628Z,98.49
2017-07-08T01:14:24.514Z,97.33
2017-07-08T01:15:05.462Z,98.49
2017-07-08T01:15:46.362Z,98.39
2017-07-08T01:16:27.239Z,98
2017-07-08T01:17:08.130Z,98
2017-07-08T01:17:49.020Z,98.19
2017-07-08T01:18:29.916Z,98.19
2017-07-08T01:19:10.806Z,98.29
2017-07-08T01:19:51.693Z,98.1
2017-07-08T01:20:32.588Z,98
2017-07-08T01:21:13.504Z,98.68
2017-07-08T01:21:54.391Z,98.77
2017-07-08T01:22:35.274Z,98.58
2017-07-08T01:23:16.166Z,98.77
2017-07-08T01:23:57.058Z,98.58
2017-07-08T01:24:37.958Z,98.58
2017-07-08T01:25:18.861Z,98.58
2017-07-08T01:25:59.756Z,98.77
2017-07-08T01:26:40.661Z,98.19
2017-07-08T01:27:21.542Z,98
2017-07-08T01:28:02.452Z,98.24
2017-07-08T01:28:43.327Z,98.14
2017-07-08T01:29:24.220Z,98.49
2017-07-08T01:30:05.117Z,98.29
2017-07-08T01:30:46.012Z,98.19
2017-07-08T01:31:26.894Z,98.1
2017-07-08T01:32:07.775Z,98.19
2017-07-08T01:32:48.669Z,97.96
2017-07-08T01:33:29.582Z,98.34
2017-07-08T01:34:10.478Z,98.29
2017-07-08T01:34:51.369Z,98.29
2017-07-08T01:35:32.262Z,98.34
2017-07-08T01:36:13.147Z,98.24
2017-07-08T01:36:54.050Z,98.05
2017-07-08T01:37:34.936Z,98.05
2017-07-08T01:38:15.847Z,97.57
2017-07-08T01:38:56.749Z,97.67
2017-07-08T01:39:37.651Z,97.47
2017-07-08T01:40:18.537Z,97.47
2017-07-08T01:40:59.424Z,97.86
2017-07-08T01:41:40.335Z,97.67
2017-07-08T01:42:21.223Z,97.38
2017-07-08T01:43:02.109Z,97.24
2017-07-08T01:43:42.994Z,97.47
2017-07-08T01:44:23.892Z,97.28
2017-07-08T01:45:04.780Z,97.52
2017-07-08T01:45:45.673Z,96.99
2017-07-08T01:46:26.564Z,96.99
2017-07-08T01:47:07.454Z,97.19
2017-07-08T01:47:48.348Z,97.19
2017-07-08T01:48:29.248Z,96.99
2017-07-08T01:49:10.131Z,96.99
2017-07-08T01:49:51.024Z,96.99
2017-07-08T01:50:31.911Z,96.8
2017-07-08T01:51:12.808Z,97.57
2017-07-08T01:51:53.737Z,97.28
2017-07-08T01:52:34.601Z,97.57
2017-07-08T01:53:15.494Z,97.47
2017-07-08T01:53:56.370Z,97.28
2017-07-08T01:54:37.264Z,97.76
2017-07-08T01:55:18.156Z,97.47
2017-07-08T01:55:59.042Z,97.38
2017-07-08T01:56:39.934Z,97.67
2017-07-08T01:57:20.809Z,97.76
2017-07-08T01:58:01.706Z,97.67
2017-07-08T01:58:42.619Z,96.99
2017-07-08T01:59:23.509Z,97.38
2017-07-08T02:00:04.409Z,97.47
2017-07-08T02:00:45.296Z,97.47
2017-07-08T02:01:26.178Z,97.19
2017-07-08T02:02:07.059Z,97.67
2017-07-08T02:02:47.946Z,97.47
2017-07-08T02:03:28.835Z,97.76
2017-07-08T02:04:09.729Z,97.47
2017-07-08T02:04:50.626Z,97.67
2017-07-08T02:05:31.525Z,97.86
2017-07-08T02:06:12.412Z,97.67
2017-07-08T02:06:53.309Z,97.67
2017-07-08T02:07:34.194Z,97.47
2017-07-08T02:08:15.091Z,97.96
2017-07-08T02:08:55.981Z,97.76
2017-07-08T02:09:36.879Z,97.47
2017-07-08T02:10:17.765Z,97.47
2017-07-08T02:10:58.654Z,97.57
2017-07-08T02:11:39.540Z,97.91
2017-07-08T02:12:20.439Z,97.96
2017-07-08T02:13:01.323Z,97.67
2017-07-08T02:13:42.226Z,97.67
2017-07-08T02:14:23.118Z,97.67
2017-07-08T02:15:04.004Z,97.67
2017-07-08T02:15:44.890Z,97.33
2017-07-08T02:16:25.792Z,97.52
2017-07-08T02:17:06.675Z,97.42
2017-07-08T02:17:47.563Z,97.52
2017-07-08T02:18:28.458Z,96.85
2017-07-08T02:19:09.362Z,97.42
2017-07-08T02:19:50.252Z,96.94
2017-07-08T02:20:31.143Z,96.85
2017-07-08T02:21:12.022Z,97.09
2017-07-08T02:21:52.920Z,97.24
2017-07-08T02:22:33.818Z,96.94
2017-07-08T02:23:14.707Z,97.04
2017-07-08T02:23:55.612Z,97.04
2017-07-08T02:24:36.513Z,97.42
2017-07-08T02:25:17.400Z,97.04
2017-07-08T02:25:58.281Z,97.62
2017-07-08T02:26:39.175Z,97.81
2017-07-08T02:27:20.078Z,97.91
2017-07-08T02:28:00.963Z,97.52
2017-07-08T02:28:41.865Z,97.42
2017-07-08T02:29:22.757Z,97.62
2017-07-08T02:30:03.641Z,97.42
2017-07-08T02:30:44.530Z,97.62
2017-07-08T02:31:25.414Z,97.62
2017-07-08T02:32:06.300Z,97.62
2017-07-08T02:32:47.192Z,97.24
2017-07-08T02:33:28.085Z,97.24
2017-07-08T02:34:08.987Z,97.04
2017-07-08T02:34:49.870Z,97.33
2017-07-08T02:35:30.757Z,97.14
2017-07-08T02:36:11.643Z,97.42
2017-07-08T02:36:52.526Z,97.52
2017-07-08T02:37:33.439Z,96.94
2017-07-08T02:38:14.313Z,97.04
2017-07-08T02:38:55.224Z,97.04
2017-07-08T02:39:36.110Z,97.42
2017-07-08T02:40:16.997Z,97.91
2017-07-08T02:40:57.877Z,97.24
2017-07-08T02:41:38.763Z,97.42
2017-07-08T02:42:19.663Z,97.52
2017-07-08T02:43:00.558Z,97.14
2017-07-08T02:43:41.451Z,97.04
2017-07-08T02:44:22.337Z,96.94
2017-07-08T02:45:03.205Z,97.52
2017-07-08T02:45:44.096Z,97.04
2017-07-08T02:46:24.993Z,97.33
2017-07-08T02:47:05.873Z,97.33
2017-07-08T02:47:46.763Z,97.24
2017-07-08T02:48:27.661Z,97.91
2017-07-08T02:49:08.555Z,97.04
2017-07-08T02:49:49.440Z,97.42
2017-07-08T02:50:30.353Z,98
2017-07-08T02:51:11.233Z,97.62
2017-07-08T02:51:52.116Z,97.42
2017-07-08T02:52:33.022Z,97.42
2017-07-08T02:53:13.907Z,97.71
2017-07-08T02:53:54.789Z,97.71
2017-07-08T02:54:35.676Z,97.71
2017-07-08T02:55:16.575Z,97.62
2017-07-08T02:55:57.463Z,97.91
2017-07-08T02:56:38.358Z,97.71
2017-07-08T02:57:19.271Z,97.81
2017-07-08T02:58:00.138Z,97.81
2017-07-08T02:58:41.030Z,97.71
2017-07-08T02:59:21.931Z,97.62
2017-07-08T03:00:02.814Z,97.14
2017-07-08T03:00:43.742Z,97.04
2017-07-08T03:01:24.618Z,97.42
2017-07-08T03:02:05.496Z,97.62
2017-07-08T03:02:46.385Z,97.81
2017-07-08T03:03:27.323Z,97.71
2017-07-08T03:04:08.170Z,97.42
2017-07-08T03:04:49.070Z,97.42
2017-07-08T03:05:29.959Z,97.42
2017-07-08T03:06:10.832Z,97.62
2017-07-08T03:06:51.725Z,97.04
2017-07-08T03:07:32.626Z,97.04
2017-07-08T03:08:13.515Z,97.04
2017-07-08T03:08:54.402Z,97.04
2017-07-08T03:09:35.305Z,97.04
2017-07-08T03:10:16.190Z,97.33
2017-07-08T03:10:57.079Z,97.09
2017-07-08T03:11:37.979Z,96.94
2017-07-08T03:12:18.875Z,97.76
2017-07-08T03:12:59.780Z,97.76
2017-07-08T03:13:40.660Z,97.09
2017-07-08T03:14:21.540Z,96.42
2017-07-08T03:15:02.435Z,96.32
2017-07-08T03:15:43.337Z,96.42
2017-07-08T03:16:24.225Z,96.61
2017-07-08T03:17:05.106Z,96.61
2017-07-08T03:17:46.006Z,96.61
2017-07-08T03:18:26.885Z,96.32
2017-07-08T03:19:07.780Z,96.47
2017-07-08T03:19:48.680Z,96.66
2017-07-08T03:20:29.562Z,97.24
2017-07-08T03:21:10.452Z,96.8
2017-07-08T03:21:51.339Z,97.19
2017-07-08T03:22:32.222Z,97.24
2017-07-08T03:23:13.111Z,97.24
2017-07-08T03:23:54.002Z,96.8
2017-07-08T03:24:34.897Z,97.09
2017-07-08T03:25:15.804Z,96.94
2017-07-08T03:25:56.686Z,97.24
2017-07-08T03:26:37.572Z,97.91
2017-07-08T03:27:18.427Z,97.42
2017-07-08T03:27:59.316Z,97.42
2017-07-08T03:28:40.224Z,97.04
2017-07-08T03:29:21.113Z,97.24
2017-07-08T03:30:02.004Z,97.71
2017-07-08T03:30:42.899Z,98.39
2017-07-08T03:31:23.784Z,98.39
2017-07-08T03:32:04.658Z,98
2017-07-08T03:32:45.550Z,98
2017-07-08T03:33:26.447Z,98.49
2017-07-08T03:34:07.331Z,98.68
2017-07-08T03:34:48.222Z,98.58
2017-07-08T03:35:29.111Z,98.58
2017-07-08T03:36:10.006Z,98.49
2017-07-08T03:36:50.901Z,98.39
2017-07-08T03:37:31.812Z,99.16
2017-07-08T03:38:12.691Z,98.39
2017-07-08T03:38:53.582Z,98.96
2017-07-08T03:39:34.488Z,98.96
2017-07-08T03:40:15.364Z,98.58
2017-07-08T03:40:56.256Z,98.87
2017-07-08T03:41:37.145Z,99.06
2017-07-08T03:42:18.027Z,98.87
2017-07-08T03:42:58.930Z,98.87
2017-07-08T03:43:39.834Z,99.26
2017-07-08T03:44:20.707Z,99.01
2017-07-08T03:45:01.596Z,98.87
2017-07-08T03:45:42.488Z,98.96
2017-07-08T03:46:23.389Z,99.06
2017-07-08T03:47:04.291Z,98.87
2017-07-08T03:47:45.194Z,99.06
2017-07-08T03:48:26.788Z,99.11
2017-07-08T03:49:07.677Z,99.26
2017-07-08T03:49:48.569Z,99.01
2017-07-08T03:50:29.444Z,98.96
2017-07-08T03:51:10.346Z,98.87
2017-07-08T03:51:51.219Z,98.87
2017-07-08T03:52:32.101Z,99.06
2017-07-08T03:53:12.989Z,98.87
2017-07-08T03:53:53.881Z,99.06
2017-07-08T03:54:34.784Z,99.35
2017-07-08T03:55:15.666Z,98.96
2017-07-08T03:55:56.557Z,99.06
2017-07-08T03:56:37.457Z,98.87
2017-07-08T03:57:18.332Z,99.44
2017-07-08T03:57:59.208Z,99.06
2017-07-08T03:58:40.102Z,99.11
2017-07-08T03:59:20.989Z,99.06
2017-07-08T04:00:01.875Z,99.06
2017-07-08T04:00:42.768Z,99.26
2017-07-08T04:01:23.663Z,99.64
2017-07-08T04:02:04.555Z,99.78
2017-07-08T04:02:45.436Z,99.78
2017-07-08T04:03:26.324Z,99.78
2017-07-08T04:04:07.200Z,99.69
2017-07-08T04:04:48.079Z,99.4
2017-07-08T04:05:28.947Z,99.49
2017-07-08T04:06:09.844Z,99.4
2017-07-08T04:06:50.746Z,99.64
2017-07-08T04:07:31.612Z,99.64
2017-07-08T04:08:12.502Z,99.35
2017-07-08T04:08:53.383Z,99.06
2017-07-08T04:09:34.275Z,99.59
2017-07-08T04:10:15.157Z,99.54
2017-07-08T04:10:56.050Z,98.58
2017-07-08T04:11:36.941Z,98.87
2017-07-08T04:12:17.831Z,99.83
2017-07-08T04:12:58.721Z,99.54
2017-07-08T04:13:39.626Z,99.73
2017-07-08T04:14:20.545Z,99.44
2017-07-08T04:15:01.416Z,99.06
2017-07-08T04:15:42.300Z,99.69
2017-07-08T04:16:23.188Z,99.54
2017-07-08T04:17:04.079Z,98.77
2017-07-08T04:17:44.971Z,98.87
2017-07-08T04:18:25.860Z,99.73
2017-07-08T04:19:06.750Z,98.87
2017-07-08T04:19:47.664Z,99.26
2017-07-08T04:20:28.555Z,99.59
2017-07-08T04:21:09.448Z,99.26
2017-07-08T04:21:50.378Z,98.68
2017-07-08T04:22:31.277Z,98.87
2017-07-08T04:23:12.157Z,98.87
2017-07-08T04:23:53.049Z,99.44
2017-07-08T04:24:33.951Z,99.16
2017-07-08T04:25:14.839Z,99.44
2017-07-08T04:25:55.728Z,99.26
2017-07-08T04:26:36.620Z,99.4
2017-07-08T04:27:17.507Z,99.21
2017-07-08T04:27:58.421Z,99.3
2017-07-08T04:28:39.315Z,99.49
2017-07-08T04:29:20.198Z,99.49
2017-07-08T04:30:01.091Z,99.21
2017-07-08T04:30:41.989Z,99.49
2017-07-08T04:31:22.880Z,99.78
2017-07-08T04:32:03.780Z,99.4
2017-07-08T04:32:44.669Z,99.3
2017-07-08T04:33:25.550Z,99.69
2017-07-08T04:34:06.435Z,99.4
2017-07-08T04:34:47.336Z,99.88
2017-07-08T04:35:28.218Z,99.98
2017-07-08T04:36:09.115Z,99.3
2017-07-08T04:36:50.012Z,99.59
2017-07-08T04:37:30.895Z,99.69
2017-07-08T04:38:11.790Z,99.59
2017-07-08T04:38:52.696Z,99.99
2017-07-08T04:39:33.580Z,99.98
2017-07-08T04:40:14.463Z,99.11
2017-07-08T04:40:55.370Z,99.35
2017-07-08T04:41:36.260Z,99.35
2017-07-08T04:42:17.146Z,99.44
2017-07-08T04:42:58.040Z,99.84
2017-07-08T04:43:38.930Z,99.54
2017-07-08T04:44:19.818Z,99.49
2017-07-08T04:45:00.751Z,99.49
2017-07-08T04:45:41.659Z,99.11
2017-07-08T04:46:22.545Z,99.49
2017-07-08T04:47:03.435Z,99.26
2017-07-08T04:47:44.335Z,99.69
2017-07-08T04:48:25.236Z,99.35
2017-07-08T04:49:06.135Z,99.11
2017-07-08T04:49:47.036Z,99.35
2017-07-08T04:50:27.924Z,99.64
2017-07-08T04:51:08.823Z,99.78
2017-07-08T04:51:49.718Z,99.01
2017-07-08T04:52:30.613Z,99.16
2017-07-08T04:53:11.516Z,99.3
2017-07-08T04:53:52.407Z,99.54
2017-07-08T04:54:33.306Z,99.69
2017-07-08T04:55:14.202Z,98.92
2017-07-08T04:55:55.121Z,99.59
2017-07-08T04:56:36.028Z,99.99
2017-07-08T04:57:16.917Z,99.59
2017-07-08T04:57:57.814Z,99.3
2017-07-08T04:58:38.693Z,99.49
2017-07-08T04:59:19.587Z,99.88
2017-07-08T05:00:00.494Z,99.49
2017-07-08T05:00:41.379Z,99.74
2017-07-08T05:01:22.271Z,99.69
2017-07-08T05:02:03.163Z,99.98
2017-07-08T05:02:44.063Z,99.78
2017-07-08T05:03:24.950Z,99.93
2017-07-08T05:04:05.855Z,99.49
2017-07-08T05:04:46.743Z,99.74
2017-07-08T05:05:27.641Z,99.99
2017-07-08T05:06:08.534Z,99.54
2017-07-08T05:06:49.416Z,99.93
2017-07-08T05:07:30.307Z,99.99
2017-07-08T05:08:11.190Z,99.93
2017-07-08T05:08:52.087Z,99.49
2017-07-08T05:09:32.978Z,99.78
2017-07-08T05:10:13.872Z,99.49
2017-07-08T05:10:54.774Z,99.64
2017-07-08T05:11:35.668Z,99.74
2017-07-08T05:12:16.562Z,99.78
2017-07-08T05:12:57.469Z,99.35
2017-07-08T05:13:38.343Z,99.99
2017-07-08T05:14:19.236Z,99.59
2017-07-08T05:15:00.128Z,99.99
2017-07-08T05:15:41.015Z,99.69
2017-07-08T05:16:21.917Z,99.69
2017-07-08T05:17:02.799Z,99.98
2017-07-08T05:17:43.688Z,99.84
2017-07-08T05:18:24.587Z,99.64
2017-07-08T05:19:05.472Z,99.35
2017-07-08T05:19:46.372Z,99.74
2017-07-08T05:20:27.279Z,99.74
2017-07-08T05:21:08.169Z,99.88
2017-07-08T05:21:49.056Z,99.4
2017-07-08T05:22:29.942Z,99.99
2017-07-08T05:23:10.832Z,99.5
2017-07-08T05:23:51.752Z,99.84
2017-07-08T05:24:32.626Z,99.93
2017-07-08T05:25:13.496Z,99.99
2017-07-08T05:25:54.375Z,99.79
2017-07-08T05:26:35.288Z,99.59
2017-07-08T05:27:16.176Z,99.3
2017-07-08T05:27:57.092Z,99.5
2017-07-08T05:28:37.983Z,99.99
2017-07-08T05:29:18.883Z,98.87
2017-07-08T05:29:59.792Z,99.06
2017-07-08T05:30:40.669Z,99.54
2017-07-08T05:31:21.566Z,99.54
2017-07-08T05:32:02.463Z,99.84
2017-07-08T05:32:43.344Z,99.54
2017-07-08T05:33:24.236Z,99.99
2017-07-08T05:34:05.132Z,99.5
2017-07-08T05:34:46.023Z,99.99
2017-07-08T05:35:26.914Z,99.98
2017-07-08T05:36:07.827Z,99.59
2017-07-08T05:36:48.724Z,99.99
2017-07-08T05:37:29.630Z,99.74
2017-07-08T05:38:10.515Z,99.79
2017-07-08T05:38:51.406Z,99.59
2017-07-08T05:39:32.304Z,99.79
2017-07-08T05:40:13.195Z,99.11
2017-07-08T05:40:54.080Z,99.79
2017-07-08T05:41:34.991Z,99.69
2017-07-08T05:42:15.860Z,99.98
2017-07-08T05:42:56.750Z,99.69
2017-07-08T05:43:37.653Z,99.98
2017-07-08T05:44:18.536Z,99.98
2017-07-08T05:44:59.428Z,99.69
2017-07-08T05:45:40.329Z,99.99
2017-07-08T05:46:21.207Z,99.79
2017-07-08T05:47:02.094Z,99.98
2017-07-08T05:47:42.986Z,99.84
2017-07-08T05:48:23.878Z,99.69
2017-07-08T05:49:04.753Z,99.74
2017-07-08T05:49:45.631Z,99.59
2017-07-08T05:50:26.540Z,99.79
2017-07-08T05:51:07.452Z,99.26
2017-07-08T05:51:48.303Z,99.74
2017-07-08T05:52:29.223Z,99.93
2017-07-08T05:53:10.083Z,99.88
2017-07-08T05:53:50.958Z,99.84
2017-07-08T05:54:31.873Z,99.35
2017-07-08T05:55:12.769Z,99.4
2017-07-08T05:55:53.673Z,99.84
2017-07-08T05:56:34.582Z,99.55
2017-07-08T05:57:15.475Z,99.4
2017-07-08T05:57:56.364Z,99.74
2017-07-08T05:58:37.258Z,99.02
2017-07-08T05:59:18.157Z,99.84
2017-07-08T05:59:59.057Z,99.21
2017-07-08T06:00:39.937Z,99.88
2017-07-08T06:01:20.859Z,99.35
2017-07-08T06:02:01.756Z,99.88
2017-07-08T06:02:42.625Z,99.88
2017-07-08T06:03:23.591Z,99.69
2017-07-08T06:04:04.456Z,99.5
2017-07-08T06:04:45.424Z,99.4
2017-07-08T06:05:26.333Z,99.5
2017-07-08T06:06:07.202Z,99.79
2017-07-08T06:06:48.096Z,99.93
2017-07-08T06:07:29.009Z,99.4
2017-07-08T06:08:09.890Z,99.88
2017-07-08T06:08:50.776Z,99.99
2017-07-08T06:09:31.676Z,99.3
2017-07-08T06:10:12.561Z,99.5
2017-07-08T06:10:53.459Z,99.99
2017-07-08T06:11:34.366Z,99.11
2017-07-08T06:12:15.252Z,99.4
2017-07-08T06:12:56.160Z,99.11
2017-07-08T06:13:37.051Z,99.21
2017-07-08T06:14:17.925Z,99.84
2017-07-08T06:14:58.816Z,99.69
2017-07-08T06:15:39.725Z,99.64
2017-07-08T06:16:20.593Z,99.4
2017-07-08T06:17:01.490Z,99.79
2017-07-08T06:17:42.395Z,99.79
2017-07-08T06:18:23.302Z,99.5
2017-07-08T06:19:04.227Z,99.99
2017-07-08T06:19:45.114Z,99.79
2017-07-08T06:20:26.045Z,99.99
2017-07-08T06:21:06.940Z,99.3
2017-07-08T06:21:47.858Z,99.4
2017-07-08T06:22:28.757Z,99.98
2017-07-08T06:23:09.667Z,99.45
2017-07-08T06:23:50.555Z,99.64
2017-07-08T06:24:31.455Z,99.26
2017-07-08T06:25:12.341Z,99.64
2017-07-08T06:25:53.223Z,99.5
2017-07-08T06:26:34.112Z,99.74
2017-07-08T06:27:15.015Z,99.59
2017-07-08T06:27:55.905Z,99.4
2017-07-08T06:28:36.811Z,99.99
2017-07-08T06:29:17.707Z,99.3
2017-07-08T06:29:58.595Z,99.5
2017-07-08T06:30:39.505Z,99.55
2017-07-08T06:31:20.379Z,99.64
2017-07-08T06:32:01.270Z,99.4
2017-07-08T06:32:42.356Z,99.79
2017-07-08T06:33:23.090Z,99.4
2017-07-08T06:34:03.996Z,99.5
2017-07-08T06:34:44.878Z,99.5
2017-07-08T06:35:25.767Z,99.4
2017-07-08T06:36:06.696Z,99.5
2017-07-08T06:36:47.578Z,99.3
2017-07-08T06:37:28.474Z,99.4
2017-07-08T06:38:09.355Z,99.4
2017-07-08T06:38:50.229Z,99.5
2017-07-08T06:39:31.124Z,99.99
2017-07-08T06:40:12.025Z,99.74
2017-07-08T06:40:52.893Z,99.93
2017-07-08T06:42:52.672Z,99.4
2017-07-08T06:43:33.561Z,99.3
2017-07-08T06:44:14.458Z,99.3
2017-07-08T06:46:13.328Z,98.29
2017-07-08T06:46:54.212Z,98.97
2017-07-08T06:47:35.164Z,98.78
2017-07-08T06:48:16.068Z,99.11
2017-07-08T06:48:56.959Z,98.87
2017-07-08T06:49:37.864Z,99.26
2017-07-08T06:50:18.957Z,98.87
2017-07-08T06:50:59.842Z,99.07
2017-07-08T06:51:40.725Z,99.35
2017-07-08T06:52:21.622Z,99.35
2017-07-08T06:53:02.557Z,99.16
2017-07-08T06:53:43.446Z,99.11
2017-07-08T06:54:24.395Z,99.21
2017-07-08T06:55:05.269Z,99.5
2017-07-08T06:55:46.177Z,99.98
2017-07-08T06:56:27.084Z,99.21
2017-07-08T06:57:07.954Z,99.88
2017-07-08T06:57:48.840Z,99.59
2017-07-08T06:58:29.733Z,99.69
2017-07-08T06:59:10.626Z,99.88
2017-07-08T06:59:51.505Z,98.92
2017-07-08T07:00:32.402Z,99.3
2017-07-08T07:01:13.284Z,99.88
2017-07-08T07:01:54.170Z,99.07
2017-07-08T07:02:35.066Z,99.35
2017-07-08T07:03:15.973Z,99.55
2017-07-08T07:03:56.853Z,98.97
2017-07-08T07:04:37.742Z,99.07
2017-07-08T07:05:18.692Z,98.72
2017-07-08T07:05:59.525Z,99.21
2017-07-08T07:06:40.413Z,98.82
2017-07-08T07:07:21.321Z,99.02
2017-07-08T07:08:02.192Z,99.59
2017-07-08T07:08:43.084Z,99.02
2017-07-08T07:09:23.991Z,99.21
2017-07-08T07:10:04.872Z,99.5
2017-07-08T07:10:45.769Z,99.02
2017-07-08T07:11:26.664Z,99.21
2017-07-08T07:12:07.563Z,99.02
2017-07-08T07:12:48.464Z,99.45
2017-07-08T07:13:29.354Z,99.21
2017-07-08T07:14:10.233Z,99.07
2017-07-08T07:14:51.137Z,99.07
2017-07-08T07:15:32.072Z,99.07
2017-07-08T07:16:12.904Z,98.82
2017-07-08T07:16:53.803Z,99.11
2017-07-08T07:17:34.700Z,99.21
2017-07-08T07:18:15.582Z,99.4
2017-07-08T07:18:56.716Z,99.5
2017-07-08T07:19:37.600Z,98.92
2017-07-08T07:20:18.504Z,98.2
2017-07-08T07:20:59.405Z,99.21
2017-07-08T07:21:40.272Z,99.11
2017-07-08T07:22:21.159Z,99.35
2017-07-08T07:23:02.084Z,99.07
2017-07-08T07:23:42.984Z,99.07
2017-07-08T07:24:23.876Z,99.07
2017-07-08T07:25:04.764Z,99.26
2017-07-08T07:25:45.657Z,99.02
2017-07-08T07:26:26.564Z,99.35
2017-07-08T07:27:07.453Z,98.29
2017-07-08T07:27:48.356Z,99.4
2017-07-08T07:28:29.250Z,99.45
2017-07-08T07:29:10.145Z,98.44
2017-07-08T07:29:51.039Z,98.34
2017-07-08T07:30:31.935Z,98.49
2017-07-08T07:31:12.827Z,98.87
2017-07-08T07:31:53.731Z,98.77
2017-07-08T07:32:34.655Z,98.39
2017-07-08T07:33:15.511Z,98.87
2017-07-08T07:33:56.409Z,99.35
2017-07-08T07:34:37.300Z,98.29
2017-07-08T07:35:18.229Z,98.39
2017-07-08T07:35:59.107Z,98.39
2017-07-08T07:36:39.986Z,98.77
2017-07-08T07:37:20.877Z,98.2
2017-07-08T07:39:15.537Z,98.58
2017-07-08T07:39:56.435Z,98.39
2017-07-08T07:40:37.329Z,98.77
2017-07-08T07:41:18.222Z,98.2
2017-07-08T07:41:59.121Z,99.4
2017-07-08T07:42:40.011Z,99.02
2017-07-08T07:43:20.904Z,99.11
2017-07-08T07:44:01.799Z,98.44
2017-07-08T07:44:42.708Z,98.63
2017-07-08T07:45:23.624Z,99.02
2017-07-08T07:46:04.517Z,99.02
2017-07-08T07:46:45.425Z,98.63
2017-07-08T07:47:26.411Z,99.21
2017-07-08T07:48:07.734Z,99.21
2017-07-08T07:48:48.433Z,98.63
2017-07-08T07:49:29.329Z,99.3
2017-07-08T07:50:10.247Z,99.07
2017-07-08T07:50:51.946Z,99.4
2017-07-08T07:51:33.088Z,98.63
2017-07-08T07:52:13.943Z,99.16
2017-07-08T07:52:54.879Z,98.68
2017-07-08T07:53:38.671Z,98.77
2017-07-08T07:54:22.372Z,98.54
2017-07-08T07:55:03.257Z,98.54
2017-07-08T07:55:44.224Z,97.96
2017-07-08T07:56:25.058Z,98.54
2017-07-08T07:57:05.957Z,98.39
2017-07-08T07:57:46.866Z,98.29
2017-07-08T07:58:27.752Z,98.2
2017-07-08T07:59:08.659Z,98.87
2017-07-08T07:59:49.552Z,99.35
2017-07-08T08:00:30.452Z,98.49
2017-07-08T08:01:11.348Z,98.49
2017-07-08T08:01:52.244Z,98.29
2017-07-08T08:02:33.133Z,98.68
2017-07-08T08:03:14.019Z,98.29
2017-07-08T08:03:54.910Z,98.39
2017-07-08T08:04:35.809Z,98.29
2017-07-08T08:05:16.727Z,98.29
2017-07-08T08:05:57.627Z,98.87
2017-07-08T08:06:38.552Z,98.29
2017-07-08T08:07:19.402Z,98.39
2017-07-08T08:08:00.308Z,97.81
2017-07-08T08:08:41.204Z,97.81
2017-07-08T08:09:22.084Z,97.91
2017-07-08T08:10:02.983Z,98.29
2017-07-08T08:10:43.885Z,97.62
2017-07-08T08:11:24.764Z,97.62
2017-07-08T08:12:05.659Z,98.1
2017-07-08T08:12:46.554Z,97.72
2017-07-08T08:13:27.449Z,98
2017-07-08T08:14:08.341Z,98
2017-07-08T08:14:49.230Z,97.42
2017-07-08T08:15:30.128Z,96.99
2017-07-08T08:16:11.032Z,96.8
2017-07-08T08:16:51.924Z,96.36
2017-07-08T08:17:32.828Z,96.17
2017-07-08T08:18:13.721Z,96.36
2017-07-08T08:18:54.602Z,96.56
2017-07-08T08:19:35.503Z,96.7
2017-07-08T08:20:16.415Z,96.32
2017-07-08T08:20:57.305Z,96.56
2017-07-08T08:21:38.203Z,96.56
2017-07-08T08:22:19.094Z,96.85
2017-07-08T08:22:59.984Z,96.99
2017-07-08T08:23:40.881Z,96.7
2017-07-08T08:24:21.784Z,96.41
2017-07-08T08:25:02.685Z,96.66
2017-07-08T08:25:43.585Z,96.66
2017-07-08T08:26:24.471Z,97.81
2017-07-08T08:27:05.377Z,96.89
2017-07-08T08:27:46.278Z,96.12
2017-07-08T08:28:27.174Z,95.88
2017-07-08T08:29:08.066Z,95.21
2017-07-08T08:29:48.954Z,95.01
2017-07-08T08:30:29.847Z,94.24
2017-07-08T08:31:10.767Z,96.22
2017-07-08T08:31:51.625Z,95.54
2017-07-08T08:32:32.519Z,95.45
2017-07-08T08:33:13.415Z,96.08
2017-07-08T08:33:54.316Z,95.21
2017-07-08T08:34:35.228Z,96.27
2017-07-08T08:35:16.120Z,96.27
2017-07-08T08:35:57.011Z,95.54
2017-07-08T08:36:37.903Z,95.79
2017-07-08T08:37:18.791Z,95.4
2017-07-08T08:37:59.689Z,95.59
2017-07-08T08:38:40.588Z,96.17
2017-07-08T08:39:21.488Z,95.59
2017-07-08T08:40:02.393Z,95.59
2017-07-08T08:40:43.287Z,95.74
2017-07-08T08:41:24.179Z,95.93
2017-07-08T08:42:05.076Z,95.54
2017-07-08T08:42:45.964Z,95.26
2017-07-08T08:43:26.856Z,95.5
2017-07-08T08:44:07.768Z,95.36
2017-07-08T08:44:48.679Z,94.73
2017-07-08T08:45:29.573Z,94.73
2017-07-08T08:46:10.464Z,95.21
2017-07-08T08:46:51.364Z,94.2
2017-07-08T08:47:32.259Z,93.8
2017-07-08T08:48:13.154Z,93.23
2017-07-08T08:48:54.050Z,94
2017-07-08T08:49:34.947Z,93.8
2017-07-08T08:50:15.850Z,94.24
2017-07-08T08:50:56.749Z,94.29
2017-07-08T08:51:37.661Z,94.53
2017-07-08T08:52:18.566Z,94.63
2017-07-08T08:52:59.451Z,94.82
2017-07-08T08:53:40.347Z,94.73
2017-07-08T08:54:21.238Z,95.11